Terminal Aerodrome Forecast
Issued by NWS Brownsville, TX

Home | Current Version | Previous Version | Text Only | Print | Product List | Glossary On
Versions: 1 2 3 4 5 6 7 8 9 10 11 12 13
543
FTUS44 KBRO 211736
TAFHRL
TAF
KHRL 211736Z 2118/2218 VRB05KT P6SM BKN050
     FM211900 09014G20KT P6SM SCT050
     FM220200 12005KT P6SM SKC
     FM220700 00000KT P6SM FEW020
     FM221400 11004KT P6SM SCT040=

USA.gov is the U.S. government's official web portal to all federal, state and local government web resources and services.